sensor_id;sensor_type;location;lat;lon;timestamp;P1;durP1;ratioP1;P2;durP2;ratioP2
13321;SDS011;6730;46.248;6.930;2023-05-18T00:01:49;1.38;;;1.05;;
13321;SDS011;6730;46.248;6.930;2023-05-18T00:04:18;1.20;;;1.00;;
13321;SDS011;6730;46.248;6.930;2023-05-18T00:06:47;2.47;;;1.17;;
13321;SDS011;6730;46.248;6.930;2023-05-18T00:09:27;2.40;;;1.35;;
13321;SDS011;6730;46.248;6.930;2023-05-18T00:11:57;1.77;;;1.42;;
13321;SDS011;6730;46.248;6.930;2023-05-18T00:14:23;1.55;;;1.27;;
13321;SDS011;6730;46.248;6.930;2023-05-18T00:16:50;1.75;;;1.27;;
13321;SDS011;6730;46.248;6.930;2023-05-18T00:19:18;1.42;;;1.20;;
13321;SDS011;6730;46.248;6.930;2023-05-18T00:21:45;1.65;;;1.23;;
13321;SDS011;6730;46.248;6.930;2023-05-18T00:24:12;1.45;;;1.30;;
13321;SDS011;6730;46.248;6.930;2023-05-18T00:26:39;1.70;;;1.30;;
13321;SDS011;6730;46.248;6.930;2023-05-18T00:29:06;1.50;;;1.15;;
13321;SDS011;6730;46.248;6.930;2023-05-18T00:31:32;1.92;;;1.30;;
13321;SDS011;6730;46.248;6.930;2023-05-18T00:34:09;4.30;;;1.30;;
13321;SDS011;6730;46.248;6.930;2023-05-18T00:36:39;1.33;;;1.23;;
13321;SDS011;6730;46.248;6.930;2023-05-18T00:39:05;1.58;;;1.00;;
13321;SDS011;6730;46.248;6.930;2023-05-18T00:41:32;1.77;;;1.25;;
13321;SDS011;6730;46.248;6.930;2023-05-18T00:43:58;1.20;;;1.10;;
13321;SDS011;6730;46.248;6.930;2023-05-18T00:46:25;1.20;;;1.00;;
13321;SDS011;6730;46.248;6.930;2023-05-18T00:48:52;1.60;;;1.30;;
13321;SDS011;6730;46.248;6.930;2023-05-18T00:51:19;3.03;;;1.10;;
13321;SDS011;6730;46.248;6.930;2023-05-18T00:53:49;1.33;;;1.23;;
13321;SDS011;6730;46.248;6.930;2023-05-18T00:56:16;1.33;;;1.10;;
13321;SDS011;6730;46.248;6.930;2023-05-18T00:58:42;1.50;;;1.10;;
13321;SDS011;6730;46.248;6.930;2023-05-18T01:01:10;1.73;;;1.05;;
13321;SDS011;6730;46.248;6.930;2023-05-18T01:03:36;2.55;;;1.17;;
13321;SDS011;6730;46.248;6.930;2023-05-18T01:06:06;1.92;;;1.25;;
13321;SDS011;6730;46.248;6.930;2023-05-18T01:08:33;2.33;;;1.30;;
13321;SDS011;6730;46.248;6.930;2023-05-18T01:11:10;1.08;;;1.00;;
13321;SDS011;6730;46.248;6.930;2023-05-18T01:13:42;1.80;;;1.10;;
13321;SDS011;6730;46.248;6.930;2023-05-18T01:16:30;1.40;;;1.20;;
13321;SDS011;6730;46.248;6.930;2023-05-18T01:19:10;4.38;;;1.20;;
13321;SDS011;6730;46.248;6.930;2023-05-18T01:21:56;2.83;;;1.23;;
13321;SDS011;6730;46.248;6.930;2023-05-18T01:27:21;2.42;;;1.27;;
13321;SDS011;6730;46.248;6.930;2023-05-18T01:29:49;2.03;;;1.10;;
13321;SDS011;6730;46.248;6.930;2023-05-18T01:32:18;3.92;;;1.35;;
13321;SDS011;6730;46.248;6.930;2023-05-18T01:34:44;2.00;;;1.17;;
13321;SDS011;6730;46.248;6.930;2023-05-18T01:37:10;1.52;;;1.20;;
13321;SDS011;6730;46.248;6.930;2023-05-18T01:39:36;1.70;;;1.08;;
13321;SDS011;6730;46.248;6.930;2023-05-18T01:42:04;2.60;;;1.30;;
13321;SDS011;6730;46.248;6.930;2023-05-18T01:44:45;1.30;;;1.17;;
13321;SDS011;6730;46.248;6.930;2023-05-18T01:47:16;1.73;;;1.38;;
13321;SDS011;6730;46.248;6.930;2023-05-18T01:50:02;1.13;;;1.02;;
13321;SDS011;6730;46.248;6.930;2023-05-18T01:52:36;2.20;;;1.00;;
13321;SDS011;6730;46.248;6.930;2023-05-18T01:55:04;2.05;;;1.20;;
13321;SDS011;6730;46.248;6.930;2023-05-18T01:57:32;1.85;;;1.30;;
13321;SDS011;6730;46.248;6.930;2023-05-18T02:00:00;1.55;;;1.30;;
13321;SDS011;6730;46.248;6.930;2023-05-18T02:02:28;1.40;;;1.10;;
13321;SDS011;6730;46.248;6.930;2023-05-18T02:04:54;1.10;;;1.00;;
13321;SDS011;6730;46.248;6.930;2023-05-18T02:07:20;2.92;;;1.30;;
13321;SDS011;6730;46.248;6.930;2023-05-18T02:09:46;1.65;;;1.10;;
13321;SDS011;6730;46.248;6.930;2023-05-18T02:12:11;1.50;;;1.15;;
13321;SDS011;6730;46.248;6.930;2023-05-18T02:14:37;2.05;;;1.13;;
13321;SDS011;6730;46.248;6.930;2023-05-18T02:17:03;1.98;;;1.20;;
13321;SDS011;6730;46.248;6.930;2023-05-18T02:19:31;1.33;;;1.00;;
13321;SDS011;6730;46.248;6.930;2023-05-18T02:21:57;2.22;;;1.10;;
13321;SDS011;6730;46.248;6.930;2023-05-18T02:24:23;2.05;;;1.50;;
13321;SDS011;6730;46.248;6.930;2023-05-18T02:26:49;2.20;;;1.40;;
13321;SDS011;6730;46.248;6.930;2023-05-18T02:29:15;2.45;;;1.10;;
13321;SDS011;6730;46.248;6.930;2023-05-18T02:31:41;2.67;;;0.98;;
13321;SDS011;6730;46.248;6.930;2023-05-18T02:34:07;1.40;;;1.02;;
13321;SDS011;6730;46.248;6.930;2023-05-18T02:36:34;1.30;;;1.20;;
13321;SDS011;6730;46.248;6.930;2023-05-18T02:39:04;1.40;;;1.27;;
13321;SDS011;6730;46.248;6.930;2023-05-18T02:41:30;2.45;;;1.17;;
13321;SDS011;6730;46.248;6.930;2023-05-18T02:43:56;1.20;;;1.10;;
13321;SDS011;6730;46.248;6.930;2023-05-18T02:46:22;1.25;;;1.13;;
13321;SDS011;6730;46.248;6.930;2023-05-18T02:48:48;2.33;;;1.20;;
13321;SDS011;6730;46.248;6.930;2023-05-18T02:51:14;1.35;;;1.00;;
13321;SDS011;6730;46.248;6.930;2023-05-18T02:53:40;1.40;;;1.30;;
13321;SDS011;6730;46.248;6.930;2023-05-18T02:56:08;1.25;;;1.15;;
13321;SDS011;6730;46.248;6.930;2023-05-18T02:58:34;1.50;;;1.40;;
13321;SDS011;6730;46.248;6.930;2023-05-18T03:01:00;2.45;;;1.10;;
13321;SDS011;6730;46.248;6.930;2023-05-18T03:03:27;1.17;;;1.08;;
13321;SDS011;6730;46.248;6.930;2023-05-18T03:05:53;1.50;;;1.23;;
13321;SDS011;6730;46.248;6.930;2023-05-18T03:08:19;1.30;;;1.00;;
13321;SDS011;6730;46.248;6.930;2023-05-18T03:10:47;2.22;;;1.38;;
13321;SDS011;6730;46.248;6.930;2023-05-18T03:13:13;1.30;;;1.20;;
13321;SDS011;6730;46.248;6.930;2023-05-18T03:15:38;1.27;;;1.17;;
13321;SDS011;6730;46.248;6.930;2023-05-18T03:18:04;2.75;;;1.30;;
13321;SDS011;6730;46.248;6.930;2023-05-18T03:20:30;1.33;;;1.20;;
13321;SDS011;6730;46.248;6.930;2023-05-18T03:22:56;1.45;;;1.20;;
13321;SDS011;6730;46.248;6.930;2023-05-18T03:25:22;1.95;;;1.10;;
13321;SDS011;6730;46.248;6.930;2023-05-18T03:27:49;1.20;;;1.08;;
13321;SDS011;6730;46.248;6.930;2023-05-18T03:30:22;2.85;;;1.30;;
13321;SDS011;6730;46.248;6.930;2023-05-18T03:32:47;1.63;;;1.30;;
13321;SDS011;6730;46.248;6.930;2023-05-18T03:35:13;1.60;;;1.20;;
13321;SDS011;6730;46.248;6.930;2023-05-18T03:37:40;1.52;;;1.38;;
13321;SDS011;6730;46.248;6.930;2023-05-18T03:40:12;3.70;;;1.40;;
13321;SDS011;6730;46.248;6.930;2023-05-18T03:42:40;1.50;;;1.20;;
13321;SDS011;6730;46.248;6.930;2023-05-18T03:45:06;1.38;;;1.23;;
13321;SDS011;6730;46.248;6.930;2023-05-18T03:47:33;1.48;;;1.33;;
13321;SDS011;6730;46.248;6.930;2023-05-18T03:49:59;3.45;;;1.48;;
13321;SDS011;6730;46.248;6.930;2023-05-18T03:52:25;1.02;;;1.00;;
13321;SDS011;6730;46.248;6.930;2023-05-18T03:54:53;2.05;;;1.52;;
13321;SDS011;6730;46.248;6.930;2023-05-18T03:57:20;1.30;;;1.20;;
13321;SDS011;6730;46.248;6.930;2023-05-18T03:59:46;1.50;;;1.38;;
13321;SDS011;6730;46.248;6.930;2023-05-18T04:02:11;1.80;;;1.05;;
13321;SDS011;6730;46.248;6.930;2023-05-18T04:04:38;1.88;;;1.30;;
13321;SDS011;6730;46.248;6.930;2023-05-18T04:07:10;1.40;;;1.23;;
13321;SDS011;6730;46.248;6.930;2023-05-18T04:09:37;1.42;;;1.17;;
13321;SDS011;6730;46.248;6.930;2023-05-18T04:12:03;1.60;;;1.35;;
13321;SDS011;6730;46.248;6.930;2023-05-18T04:14:30;1.30;;;1.20;;
13321;SDS011;6730;46.248;6.930;2023-05-18T04:16:59;1.42;;;1.30;;
13321;SDS011;6730;46.248;6.930;2023-05-18T04:19:32;2.22;;;1.48;;
13321;SDS011;6730;46.248;6.930;2023-05-18T04:21:58;2.67;;;1.40;;
13321;SDS011;6730;46.248;6.930;2023-05-18T04:24:24;1.38;;;1.27;;
13321;SDS011;6730;46.248;6.930;2023-05-18T04:26:51;1.35;;;1.17;;
13321;SDS011;6730;46.248;6.930;2023-05-18T04:29:17;1.40;;;1.30;;
13321;SDS011;6730;46.248;6.930;2023-05-18T04:31:43;1.33;;;1.10;;
13321;SDS011;6730;46.248;6.930;2023-05-18T04:34:12;2.42;;;1.30;;
13321;SDS011;6730;46.248;6.930;2023-05-18T04:36:41;2.13;;;1.38;;
13321;SDS011;6730;46.248;6.930;2023-05-18T04:39:08;2.35;;;1.40;;
13321;SDS011;6730;46.248;6.930;2023-05-18T04:41:34;1.30;;;1.17;;
13321;SDS011;6730;46.248;6.930;2023-05-18T04:43:59;1.60;;;1.20;;
13321;SDS011;6730;46.248;6.930;2023-05-18T04:46:26;1.52;;;1.23;;
13321;SDS011;6730;46.248;6.930;2023-05-18T04:48:52;2.53;;;1.40;;
13321;SDS011;6730;46.248;6.930;2023-05-18T04:51:22;1.60;;;1.50;;
13321;SDS011;6730;46.248;6.930;2023-05-18T04:53:48;2.20;;;1.27;;
13321;SDS011;6730;46.248;6.930;2023-05-18T04:56:15;1.40;;;1.30;;
13321;SDS011;6730;46.248;6.930;2023-05-18T04:58:41;3.45;;;1.60;;
13321;SDS011;6730;46.248;6.930;2023-05-18T05:01:12;2.17;;;1.83;;
13321;SDS011;6730;46.248;6.930;2023-05-18T05:03:41;2.03;;;1.23;;
13321;SDS011;6730;46.248;6.930;2023-05-18T05:06:07;1.40;;;1.30;;
13321;SDS011;6730;46.248;6.930;2023-05-18T05:08:34;2.70;;;1.58;;
13321;SDS011;6730;46.248;6.930;2023-05-18T05:11:01;1.60;;;1.38;;
13321;SDS011;6730;46.248;6.930;2023-05-18T05:13:26;1.90;;;1.50;;
13321;SDS011;6730;46.248;6.930;2023-05-18T05:15:52;3.33;;;1.60;;
13321;SDS011;6730;46.248;6.930;2023-05-18T05:18:18;1.98;;;1.70;;
13321;SDS011;6730;46.248;6.930;2023-05-18T05:20:43;1.65;;;1.25;;
13321;SDS011;6730;46.248;6.930;2023-05-18T05:23:09;3.15;;;1.60;;
13321;SDS011;6730;46.248;6.930;2023-05-18T05:25:35;1.77;;;1.60;;
13321;SDS011;6730;46.248;6.930;2023-05-18T05:28:00;2.05;;;1.63;;
13321;SDS011;6730;46.248;6.930;2023-05-18T05:30:26;2.85;;;1.73;;
13321;SDS011;6730;46.248;6.930;2023-05-18T05:32:52;1.67;;;1.58;;
13321;SDS011;6730;46.248;6.930;2023-05-18T05:35:17;3.13;;;1.50;;
13321;SDS011;6730;46.248;6.930;2023-05-18T05:37:43;3.63;;;1.52;;
13321;SDS011;6730;46.248;6.930;2023-05-18T05:40:09;2.10;;;1.90;;
13321;SDS011;6730;46.248;6.930;2023-05-18T05:42:35;2.80;;;1.70;;
13321;SDS011;6730;46.248;6.930;2023-05-18T05:45:01;2.10;;;1.90;;
13321;SDS011;6730;46.248;6.930;2023-05-18T05:47:26;4.40;;;2.17;;
13321;SDS011;6730;46.248;6.930;2023-05-18T05:49:52;2.72;;;2.22;;
13321;SDS011;6730;46.248;6.930;2023-05-18T05:52:18;2.92;;;2.00;;
13321;SDS011;6730;46.248;6.930;2023-05-18T05:54:44;2.53;;;1.88;;
13321;SDS011;6730;46.248;6.930;2023-05-18T05:57:09;3.20;;;2.25;;
13321;SDS011;6730;46.248;6.930;2023-05-18T05:59:35;3.05;;;2.03;;
13321;SDS011;6730;46.248;6.930;2023-05-18T06:02:01;2.30;;;1.92;;
13321;SDS011;6730;46.248;6.930;2023-05-18T06:04:27;2.75;;;2.08;;
13321;SDS011;6730;46.248;6.930;2023-05-18T06:06:52;2.13;;;1.90;;
13321;SDS011;6730;46.248;6.930;2023-05-18T06:09:18;2.42;;;1.90;;
13321;SDS011;6730;46.248;6.930;2023-05-18T06:11:44;2.85;;;2.03;;
13321;SDS011;6730;46.248;6.930;2023-05-18T06:14:10;3.38;;;2.35;;
13321;SDS011;6730;46.248;6.930;2023-05-18T06:16:36;3.55;;;2.25;;
13321;SDS011;6730;46.248;6.930;2023-05-18T06:19:02;2.67;;;2.10;;
13321;SDS011;6730;46.248;6.930;2023-05-18T06:21:28;5.25;;;2.25;;
13321;SDS011;6730;46.248;6.930;2023-05-18T06:23:55;2.63;;;1.83;;
13321;SDS011;6730;46.248;6.930;2023-05-18T06:26:21;3.75;;;2.05;;
13321;SDS011;6730;46.248;6.930;2023-05-18T06:28:47;4.07;;;2.58;;
13321;SDS011;6730;46.248;6.930;2023-05-18T06:31:14;4.90;;;2.47;;
13321;SDS011;6730;46.248;6.930;2023-05-18T06:33:39;2.67;;;2.47;;
13321;SDS011;6730;46.248;6.930;2023-05-18T06:36:05;4.25;;;2.35;;
13321;SDS011;6730;46.248;6.930;2023-05-18T06:38:31;3.55;;;2.35;;
13321;SDS011;6730;46.248;6.930;2023-05-18T06:40:57;3.30;;;2.60;;
13321;SDS011;6730;46.248;6.930;2023-05-18T06:43:23;2.80;;;2.50;;
13321;SDS011;6730;46.248;6.930;2023-05-18T06:45:51;4.15;;;2.60;;
13321;SDS011;6730;46.248;6.930;2023-05-18T06:48:16;4.53;;;2.63;;
13321;SDS011;6730;46.248;6.930;2023-05-18T06:50:42;6.72;;;2.92;;
13321;SDS011;6730;46.248;6.930;2023-05-18T06:53:08;3.88;;;2.42;;
13321;SDS011;6730;46.248;6.930;2023-05-18T06:55:33;3.80;;;2.65;;
13321;SDS011;6730;46.248;6.930;2023-05-18T06:57:59;3.60;;;2.80;;
13321;SDS011;6730;46.248;6.930;2023-05-18T07:00:26;5.32;;;3.00;;
13321;SDS011;6730;46.248;6.930;2023-05-18T07:02:52;3.78;;;2.67;;
13321;SDS011;6730;46.248;6.930;2023-05-18T07:05:17;4.10;;;3.10;;
13321;SDS011;6730;46.248;6.930;2023-05-18T07:07:43;3.67;;;2.50;;
13321;SDS011;6730;46.248;6.930;2023-05-18T07:10:09;4.35;;;3.15;;
13321;SDS011;6730;46.248;6.930;2023-05-18T07:12:35;4.30;;;3.10;;
13321;SDS011;6730;46.248;6.930;2023-05-18T07:15:01;5.82;;;3.30;;
13321;SDS011;6730;46.248;6.930;2023-05-18T07:17:28;3.88;;;2.75;;
13321;SDS011;6730;46.248;6.930;2023-05-18T07:19:53;6.20;;;2.97;;
13321;SDS011;6730;46.248;6.930;2023-05-18T07:22:19;4.03;;;3.30;;
13321;SDS011;6730;46.248;6.930;2023-05-18T07:24:44;3.35;;;2.83;;
13321;SDS011;6730;46.248;6.930;2023-05-18T07:27:10;3.83;;;3.17;;
13321;SDS011;6730;46.248;6.930;2023-05-18T07:29:36;4.78;;;3.45;;
13321;SDS011;6730;46.248;6.930;2023-05-18T07:32:02;4.40;;;3.33;;
13321;SDS011;6730;46.248;6.930;2023-05-18T07:34:27;6.93;;;3.88;;
13321;SDS011;6730;46.248;6.930;2023-05-18T07:36:53;6.80;;;3.40;;
13321;SDS011;6730;46.248;6.930;2023-05-18T07:39:18;4.25;;;3.17;;
13321;SDS011;6730;46.248;6.930;2023-05-18T07:41:45;3.67;;;2.80;;
13321;SDS011;6730;46.248;6.930;2023-05-18T07:44:12;3.70;;;3.13;;
13321;SDS011;6730;46.248;6.930;2023-05-18T07:46:38;5.25;;;3.65;;
13321;SDS011;6730;46.248;6.930;2023-05-18T07:49:04;6.03;;;3.10;;
13321;SDS011;6730;46.248;6.930;2023-05-18T07:51:30;6.60;;;3.65;;
13321;SDS011;6730;46.248;6.930;2023-05-18T07:53:56;5.70;;;4.28;;
13321;SDS011;6730;46.248;6.930;2023-05-18T07:56:22;5.18;;;3.75;;
13321;SDS011;6730;46.248;6.930;2023-05-18T07:58:48;5.20;;;3.45;;
13321;SDS011;6730;46.248;6.930;2023-05-18T08:01:14;4.82;;;3.30;;
13321;SDS011;6730;46.248;6.930;2023-05-18T08:03:40;5.50;;;3.42;;
13321;SDS011;6730;46.248;6.930;2023-05-18T08:06:05;3.65;;;3.03;;
13321;SDS011;6730;46.248;6.930;2023-05-18T08:08:31;3.35;;;2.75;;
13321;SDS011;6730;46.248;6.930;2023-05-18T08:11:01;5.25;;;3.80;;
13321;SDS011;6730;46.248;6.930;2023-05-18T08:13:27;5.50;;;3.42;;
13321;SDS011;6730;46.248;6.930;2023-05-18T08:15:53;5.72;;;3.67;;
13321;SDS011;6730;46.248;6.930;2023-05-18T08:18:19;5.03;;;3.75;;
13321;SDS011;6730;46.248;6.930;2023-05-18T08:20:44;4.38;;;3.53;;
13321;SDS011;6730;46.248;6.930;2023-05-18T08:23:10;7.10;;;3.90;;
13321;SDS011;6730;46.248;6.930;2023-05-18T08:25:36;5.30;;;2.85;;
13321;SDS011;6730;46.248;6.930;2023-05-18T08:28:02;4.25;;;3.65;;
13321;SDS011;6730;46.248;6.930;2023-05-18T08:30:28;5.07;;;3.58;;
13321;SDS011;6730;46.248;6.930;2023-05-18T08:32:53;5.60;;;3.72;;
13321;SDS011;6730;46.248;6.930;2023-05-18T08:35:20;5.05;;;3.53;;
13321;SDS011;6730;46.248;6.930;2023-05-18T08:37:46;3.92;;;3.25;;
13321;SDS011;6730;46.248;6.930;2023-05-18T08:40:11;4.28;;;3.30;;
13321;SDS011;6730;46.248;6.930;2023-05-18T08:42:39;7.53;;;3.47;;
13321;SDS011;6730;46.248;6.930;2023-05-18T08:48:02;7.95;;;3.60;;
13321;SDS011;6730;46.248;6.930;2023-05-18T08:50:30;5.78;;;4.00;;
13321;SDS011;6730;46.248;6.930;2023-05-18T08:52:58;5.43;;;3.25;;
13321;SDS011;6730;46.248;6.930;2023-05-18T08:55:28;4.40;;;3.15;;
13321;SDS011;6730;46.248;6.930;2023-05-18T08:57:58;4.85;;;3.72;;
13321;SDS011;6730;46.248;6.930;2023-05-18T09:00:26;4.65;;;3.63;;
13321;SDS011;6730;46.248;6.930;2023-05-18T09:02:52;5.57;;;4.10;;
13321;SDS011;6730;46.248;6.930;2023-05-18T09:05:18;6.45;;;4.43;;
13321;SDS011;6730;46.248;6.930;2023-05-18T09:07:45;7.55;;;3.58;;
13321;SDS011;6730;46.248;6.930;2023-05-18T09:10:12;6.68;;;4.30;;
13321;SDS011;6730;46.248;6.930;2023-05-18T09:12:40;4.22;;;2.83;;
13321;SDS011;6730;46.248;6.930;2023-05-18T09:15:10;6.50;;;3.67;;
13321;SDS011;6730;46.248;6.930;2023-05-18T09:17:37;4.03;;;3.45;;
13321;SDS011;6730;46.248;6.930;2023-05-18T09:20:03;5.45;;;3.20;;
13321;SDS011;6730;46.248;6.930;2023-05-18T09:22:30;3.78;;;3.22;;
13321;SDS011;6730;46.248;6.930;2023-05-18T09:24:56;5.93;;;3.70;;
13321;SDS011;6730;46.248;6.930;2023-05-18T09:27:22;5.32;;;3.70;;
13321;SDS011;6730;46.248;6.930;2023-05-18T09:29:51;7.30;;;4.32;;
13321;SDS011;6730;46.248;6.930;2023-05-18T09:32:18;4.30;;;3.42;;
13321;SDS011;6730;46.248;6.930;2023-05-18T09:34:45;6.10;;;4.35;;
13321;SDS011;6730;46.248;6.930;2023-05-18T09:37:14;6.63;;;4.20;;
13321;SDS011;6730;46.248;6.930;2023-05-18T09:39:41;5.82;;;4.30;;
13321;SDS011;6730;46.248;6.930;2023-05-18T09:42:07;5.68;;;4.10;;
13321;SDS011;6730;46.248;6.930;2023-05-18T09:44:33;6.57;;;4.63;;
13321;SDS011;6730;46.248;6.930;2023-05-18T09:46:59;6.28;;;4.03;;
13321;SDS011;6730;46.248;6.930;2023-05-18T09:49:25;6.35;;;4.13;;
13321;SDS011;6730;46.248;6.930;2023-05-18T09:51:53;6.43;;;3.95;;
13321;SDS011;6730;46.248;6.930;2023-05-18T09:54:20;4.45;;;4.05;;
13321;SDS011;6730;46.248;6.930;2023-05-18T09:56:46;4.80;;;4.30;;
13321;SDS011;6730;46.248;6.930;2023-05-18T09:59:14;6.35;;;4.53;;
13321;SDS011;6730;46.248;6.930;2023-05-18T10:04:22;5.50;;;3.60;;
13321;SDS011;6730;46.248;6.930;2023-05-18T10:06:48;5.28;;;4.15;;
13321;SDS011;6730;46.248;6.930;2023-05-18T10:09:14;6.35;;;4.30;;
13321;SDS011;6730;46.248;6.930;2023-05-18T10:11:40;6.53;;;4.30;;
13321;SDS011;6730;46.248;6.930;2023-05-18T10:14:09;7.13;;;4.43;;
13321;SDS011;6730;46.248;6.930;2023-05-18T10:16:35;6.28;;;4.35;;
13321;SDS011;6730;46.248;6.930;2023-05-18T10:19:01;6.47;;;4.47;;
13321;SDS011;6730;46.248;6.930;2023-05-18T10:21:30;6.45;;;4.85;;
13321;SDS011;6730;46.248;6.930;2023-05-18T10:23:58;6.30;;;5.28;;
13321;SDS011;6730;46.248;6.930;2023-05-18T10:26:27;4.45;;;3.92;;
13321;SDS011;6730;46.248;6.930;2023-05-18T10:28:58;9.40;;;4.82;;
13321;SDS011;6730;46.248;6.930;2023-05-18T10:31:24;6.95;;;4.72;;
13321;SDS011;6730;46.248;6.930;2023-05-18T10:33:54;6.15;;;4.60;;
13321;SDS011;6730;46.248;6.930;2023-05-18T10:36:20;6.15;;;4.47;;
13321;SDS011;6730;46.248;6.930;2023-05-18T10:38:49;5.63;;;3.75;;
13321;SDS011;6730;46.248;6.930;2023-05-18T10:41:16;5.35;;;4.38;;
13321;SDS011;6730;46.248;6.930;2023-05-18T10:43:45;5.55;;;4.25;;
13321;SDS011;6730;46.248;6.930;2023-05-18T10:46:12;6.43;;;4.93;;
13321;SDS011;6730;46.248;6.930;2023-05-18T10:48:40;5.90;;;4.72;;
13321;SDS011;6730;46.248;6.930;2023-05-18T10:51:09;6.32;;;4.60;;
13321;SDS011;6730;46.248;6.930;2023-05-18T10:53:36;7.15;;;4.90;;
13321;SDS011;6730;46.248;6.930;2023-05-18T10:56:07;7.35;;;4.40;;
13321;SDS011;6730;46.248;6.930;2023-05-18T10:58:34;6.97;;;4.35;;
13321;SDS011;6730;46.248;6.930;2023-05-18T11:01:01;5.55;;;4.80;;
13321;SDS011;6730;46.248;6.930;2023-05-18T11:03:31;5.20;;;4.25;;
13321;SDS011;6730;46.248;6.930;2023-05-18T11:06:07;6.30;;;4.50;;
13321;SDS011;6730;46.248;6.930;2023-05-18T11:08:40;6.35;;;4.53;;
13321;SDS011;6730;46.248;6.930;2023-05-18T11:11:13;5.00;;;4.47;;
13321;SDS011;6730;46.248;6.930;2023-05-18T11:13:42;6.05;;;4.72;;
13321;SDS011;6730;46.248;6.930;2023-05-18T11:16:11;7.25;;;4.00;;
13321;SDS011;6730;46.248;6.930;2023-05-18T11:26:53;5.60;;;4.95;;
13321;SDS011;6730;46.248;6.930;2023-05-18T11:29:21;6.00;;;4.93;;
13321;SDS011;6730;46.248;6.930;2023-05-18T11:31:59;5.30;;;3.83;;
13321;SDS011;6730;46.248;6.930;2023-05-18T11:34:41;5.03;;;4.53;;
13321;SDS011;6730;46.248;6.930;2023-05-18T11:37:08;5.15;;;4.07;;
13321;SDS011;6730;46.248;6.930;2023-05-18T11:39:35;6.75;;;4.32;;
13321;SDS011;6730;46.248;6.930;2023-05-18T11:42:04;7.15;;;4.90;;
13321;SDS011;6730;46.248;6.930;2023-05-18T11:44:34;5.43;;;4.43;;
13321;SDS011;6730;46.248;6.930;2023-05-18T11:47:04;5.20;;;4.57;;
13321;SDS011;6730;46.248;6.930;2023-05-18T11:52:12;7.05;;;4.07;;
13321;SDS011;6730;46.248;6.930;2023-05-18T11:57:14;5.88;;;3.58;;
13321;SDS011;6730;46.248;6.930;2023-05-18T11:59:42;7.30;;;4.47;;
13321;SDS011;6730;46.248;6.930;2023-05-18T12:02:12;6.28;;;4.47;;
13321;SDS011;6730;46.248;6.930;2023-05-18T12:04:44;6.32;;;4.07;;
13321;SDS011;6730;46.248;6.930;2023-05-18T12:07:12;4.82;;;4.35;;
13321;SDS011;6730;46.248;6.930;2023-05-18T12:09:41;6.35;;;4.75;;
13321;SDS011;6730;46.248;6.930;2023-05-18T12:12:08;5.38;;;3.92;;
13321;SDS011;6730;46.248;6.930;2023-05-18T12:14:36;5.50;;;4.70;;
13321;SDS011;6730;46.248;6.930;2023-05-18T12:17:16;6.45;;;4.57;;
13321;SDS011;6730;46.248;6.930;2023-05-18T12:19:42;5.82;;;4.20;;
13321;SDS011;6730;46.248;6.930;2023-05-18T12:22:10;5.63;;;4.15;;
13321;SDS011;6730;46.248;6.930;2023-05-18T12:24:37;7.53;;;5.10;;
13321;SDS011;6730;46.248;6.930;2023-05-18T12:27:04;5.18;;;4.32;;
13321;SDS011;6730;46.248;6.930;2023-05-18T12:29:31;5.25;;;4.35;;
13321;SDS011;6730;46.248;6.930;2023-05-18T12:31:57;4.82;;;4.22;;
13321;SDS011;6730;46.248;6.930;2023-05-18T12:34:27;9.45;;;4.88;;
13321;SDS011;6730;46.248;6.930;2023-05-18T12:36:53;7.40;;;5.05;;
13321;SDS011;6730;46.248;6.930;2023-05-18T12:39:20;6.78;;;5.20;;
13321;SDS011;6730;46.248;6.930;2023-05-18T12:41:46;7.47;;;5.10;;
13321;SDS011;6730;46.248;6.930;2023-05-18T12:44:13;6.88;;;4.53;;
13321;SDS011;6730;46.248;6.930;2023-05-18T12:46:40;7.63;;;5.20;;
13321;SDS011;6730;46.248;6.930;2023-05-18T12:49:07;8.10;;;4.40;;
13321;SDS011;6730;46.248;6.930;2023-05-18T12:51:33;7.57;;;4.65;;
13321;SDS011;6730;46.248;6.930;2023-05-18T12:54:02;5.53;;;4.50;;
13321;SDS011;6730;46.248;6.930;2023-05-18T12:59:18;5.03;;;4.18;;
13321;SDS011;6730;46.248;6.930;2023-05-18T13:01:45;6.03;;;4.20;;
13321;SDS011;6730;46.248;6.930;2023-05-18T13:04:10;6.38;;;5.13;;
13321;SDS011;6730;46.248;6.930;2023-05-18T13:06:37;7.30;;;4.85;;
13321;SDS011;6730;46.248;6.930;2023-05-18T13:09:06;6.07;;;4.28;;
13321;SDS011;6730;46.248;6.930;2023-05-18T13:11:32;6.60;;;4.85;;
13321;SDS011;6730;46.248;6.930;2023-05-18T13:14:02;5.93;;;4.57;;
13321;SDS011;6730;46.248;6.930;2023-05-18T13:16:29;6.72;;;4.38;;
13321;SDS011;6730;46.248;6.930;2023-05-18T13:18:59;5.35;;;4.10;;
13321;SDS011;6730;46.248;6.930;2023-05-18T13:21:29;5.85;;;4.75;;
13321;SDS011;6730;46.248;6.930;2023-05-18T13:23:55;6.22;;;4.40;;
13321;SDS011;6730;46.248;6.930;2023-05-18T13:26:21;4.70;;;4.22;;
13321;SDS011;6730;46.248;6.930;2023-05-18T13:28:48;5.78;;;4.25;;
13321;SDS011;6730;46.248;6.930;2023-05-18T13:31:16;5.20;;;4.53;;
13321;SDS011;6730;46.248;6.930;2023-05-18T13:33:42;5.53;;;4.22;;
13321;SDS011;6730;46.248;6.930;2023-05-18T13:36:08;6.88;;;4.65;;
13321;SDS011;6730;46.248;6.930;2023-05-18T13:38:33;5.55;;;4.03;;
13321;SDS011;6730;46.248;6.930;2023-05-18T13:41:01;5.32;;;3.63;;
13321;SDS011;6730;46.248;6.930;2023-05-18T13:43:28;3.95;;;3.55;;
13321;SDS011;6730;46.248;6.930;2023-05-18T13:45:54;3.80;;;3.40;;
13321;SDS011;6730;46.248;6.930;2023-05-18T13:48:20;6.15;;;4.05;;
13321;SDS011;6730;46.248;6.930;2023-05-18T13:50:45;6.95;;;4.53;;
13321;SDS011;6730;46.248;6.930;2023-05-18T13:53:11;5.25;;;3.90;;
13321;SDS011;6730;46.248;6.930;2023-05-18T13:55:36;6.07;;;4.78;;
13321;SDS011;6730;46.248;6.930;2023-05-18T13:58:02;4.45;;;4.03;;
13321;SDS011;6730;46.248;6.930;2023-05-18T14:00:28;5.22;;;3.67;;
13321;SDS011;6730;46.248;6.930;2023-05-18T14:02:56;6.38;;;3.97;;
13321;SDS011;6730;46.248;6.930;2023-05-18T14:05:22;4.82;;;4.13;;
13321;SDS011;6730;46.248;6.930;2023-05-18T14:07:49;8.45;;;3.83;;
13321;SDS011;6730;46.248;6.930;2023-05-18T14:10:16;6.10;;;4.18;;
13321;SDS011;6730;46.248;6.930;2023-05-18T14:12:42;7.00;;;4.28;;
13321;SDS011;6730;46.248;6.930;2023-05-18T14:15:08;6.30;;;4.50;;
13321;SDS011;6730;46.248;6.930;2023-05-18T14:17:35;7.03;;;4.25;;
13321;SDS011;6730;46.248;6.930;2023-05-18T14:20:01;7.00;;;4.68;;
13321;SDS011;6730;46.248;6.930;2023-05-18T14:22:28;5.95;;;3.95;;
13321;SDS011;6730;46.248;6.930;2023-05-18T14:24:54;5.18;;;4.07;;
13321;SDS011;6730;46.248;6.930;2023-05-18T14:27:20;4.10;;;3.70;;
13321;SDS011;6730;46.248;6.930;2023-05-18T14:29:46;6.35;;;4.13;;
13321;SDS011;6730;46.248;6.930;2023-05-18T14:32:12;7.00;;;4.45;;
13321;SDS011;6730;46.248;6.930;2023-05-18T14:34:38;5.03;;;3.85;;
13321;SDS011;6730;46.248;6.930;2023-05-18T14:37:04;4.22;;;3.83;;
13321;SDS011;6730;46.248;6.930;2023-05-18T14:39:29;4.50;;;3.38;;
13321;SDS011;6730;46.248;6.930;2023-05-18T14:41:55;13.60;;;7.20;;
13321;SDS011;6730;46.248;6.930;2023-05-18T14:44:21;13.13;;;6.38;;
13321;SDS011;6730;46.248;6.930;2023-05-18T14:46:46;8.07;;;5.15;;
13321;SDS011;6730;46.248;6.930;2023-05-18T14:49:12;6.07;;;4.22;;
13321;SDS011;6730;46.248;6.930;2023-05-18T14:51:38;5.97;;;4.00;;
13321;SDS011;6730;46.248;6.930;2023-05-18T14:54:04;6.68;;;3.67;;
13321;SDS011;6730;46.248;6.930;2023-05-18T14:56:29;5.35;;;4.07;;
13321;SDS011;6730;46.248;6.930;2023-05-18T14:58:55;4.43;;;4.00;;
13321;SDS011;6730;46.248;6.930;2023-05-18T15:01:21;5.57;;;4.30;;
13321;SDS011;6730;46.248;6.930;2023-05-18T15:03:47;4.72;;;3.65;;
13321;SDS011;6730;46.248;6.930;2023-05-18T15:06:12;5.72;;;3.88;;
13321;SDS011;6730;46.248;6.930;2023-05-18T15:08:38;4.93;;;4.22;;
13321;SDS011;6730;46.248;6.930;2023-05-18T15:11:04;5.32;;;3.83;;
13321;SDS011;6730;46.248;6.930;2023-05-18T15:13:30;4.90;;;3.90;;
13321;SDS011;6730;46.248;6.930;2023-05-18T15:15:56;7.35;;;4.03;;
13321;SDS011;6730;46.248;6.930;2023-05-18T15:18:22;4.10;;;3.70;;
13321;SDS011;6730;46.248;6.930;2023-05-18T15:20:48;6.50;;;3.97;;
13321;SDS011;6730;46.248;6.930;2023-05-18T15:23:13;5.95;;;3.92;;
13321;SDS011;6730;46.248;6.930;2023-05-18T15:25:39;4.43;;;3.95;;